sensor_id;sensor_type;location;lat;lon;timestamp;temperature;humidity
34985;DHT22;21190;58.750;17.004;2023-04-24T00:01:39;9.00;99.90
34985;DHT22;21190;58.750;17.004;2023-04-24T00:04:06;9.00;99.90
34985;DHT22;21190;58.750;17.004;2023-04-24T00:06:37;9.00;99.90
34985;DHT22;21190;58.750;17.004;2023-04-24T00:09:05;9.00;99.90
34985;DHT22;21190;58.750;17.004;2023-04-24T00:11:32;9.00;99.90
34985;DHT22;21190;58.750;17.004;2023-04-24T00:13:59;9.00;99.90
34985;DHT22;21190;58.750;17.004;2023-04-24T00:16:26;8.90;99.90
34985;DHT22;21190;58.750;17.004;2023-04-24T00:18:53;8.90;99.90
34985;DHT22;21190;58.750;17.004;2023-04-24T00:21:20;8.90;99.90
34985;DHT22;21190;58.750;17.004;2023-04-24T00:23:48;8.90;99.90
34985;DHT22;21190;58.750;17.004;2023-04-24T00:26:15;8.90;99.90
34985;DHT22;21190;58.750;17.004;2023-04-24T00:28:42;8.80;99.90
34985;DHT22;21190;58.750;17.004;2023-04-24T00:31:09;8.80;99.90
34985;DHT22;21190;58.750;17.004;2023-04-24T00:33:36;8.70;99.90
34985;DHT22;21190;58.750;17.004;2023-04-24T00:36:03;8.70;99.90
34985;DHT22;21190;58.750;17.004;2023-04-24T00:38:30;8.60;99.90
34985;DHT22;21190;58.750;17.004;2023-04-24T00:40:57;8.40;99.90
34985;DHT22;21190;58.750;17.004;2023-04-24T00:43:24;8.30;99.90
34985;DHT22;21190;58.750;17.004;2023-04-24T00:45:51;8.30;99.90
34985;DHT22;21190;58.750;17.004;2023-04-24T00:48:18;8.30;99.90
34985;DHT22;21190;58.750;17.004;2023-04-24T00:50:46;8.30;99.90
34985;DHT22;21190;58.750;17.004;2023-04-24T00:53:13;8.20;99.90
34985;DHT22;21190;58.750;17.004;2023-04-24T00:55:40;8.20;99.90
34985;DHT22;21190;58.750;17.004;2023-04-24T00:58:07;8.20;99.90
34985;DHT22;21190;58.750;17.004;2023-04-24T01:00:35;8.10;99.90
34985;DHT22;21190;58.750;17.004;2023-04-24T01:03:04;8.10;99.90
34985;DHT22;21190;58.750;17.004;2023-04-24T01:05:32;8.00;99.90
34985;DHT22;21190;58.750;17.004;2023-04-24T01:07:59;7.90;99.90
34985;DHT22;21190;58.750;17.004;2023-04-24T01:10:29;7.90;99.90
34985;DHT22;21190;58.750;17.004;2023-04-24T01:12:56;7.90;99.90
34985;DHT22;21190;58.750;17.004;2023-04-24T01:15:24;7.80;99.90
34985;DHT22;21190;58.750;17.004;2023-04-24T01:17:51;7.80;99.90
34985;DHT22;21190;58.750;17.004;2023-04-24T01:20:18;7.80;99.90
34985;DHT22;21190;58.750;17.004;2023-04-24T01:22:48;7.80;99.90
34985;DHT22;21190;58.750;17.004;2023-04-24T01:25:15;7.90;99.90
34985;DHT22;21190;58.750;17.004;2023-04-24T01:27:42;7.90;99.90
34985;DHT22;21190;58.750;17.004;2023-04-24T01:30:09;7.80;99.90
34985;DHT22;21190;58.750;17.004;2023-04-24T01:32:37;7.90;99.90
34985;DHT22;21190;58.750;17.004;2023-04-24T01:35:05;7.80;99.90
34985;DHT22;21190;58.750;17.004;2023-04-24T01:37:32;7.80;99.90
34985;DHT22;21190;58.750;17.004;2023-04-24T01:39:59;7.80;99.90
34985;DHT22;21190;58.750;17.004;2023-04-24T01:42:26;7.80;99.90
34985;DHT22;21190;58.750;17.004;2023-04-24T01:44:53;7.70;99.90
34985;DHT22;21190;58.750;17.004;2023-04-24T01:47:21;7.70;99.90
34985;DHT22;21190;58.750;17.004;2023-04-24T01:49:48;7.70;99.90
34985;DHT22;21190;58.750;17.004;2023-04-24T01:52:16;7.70;99.90
34985;DHT22;21190;58.750;17.004;2023-04-24T01:54:45;7.70;99.90
34985;DHT22;21190;58.750;17.004;2023-04-24T01:57:12;7.60;99.90
34985;DHT22;21190;58.750;17.004;2023-04-24T01:59:40;7.60;99.90
34985;DHT22;21190;58.750;17.004;2023-04-24T02:02:07;7.60;99.90
34985;DHT22;21190;58.750;17.004;2023-04-24T02:04:34;7.60;99.90
34985;DHT22;21190;58.750;17.004;2023-04-24T02:07:01;7.60;99.90
34985;DHT22;21190;58.750;17.004;2023-04-24T02:09:28;7.60;99.90
34985;DHT22;21190;58.750;17.004;2023-04-24T02:11:55;7.50;99.90
34985;DHT22;21190;58.750;17.004;2023-04-24T02:14:23;7.50;99.90
34985;DHT22;21190;58.750;17.004;2023-04-24T02:16:49;7.50;99.90
34985;DHT22;21190;58.750;17.004;2023-04-24T02:19:16;7.50;99.90
34985;DHT22;21190;58.750;17.004;2023-04-24T02:21:43;7.50;99.90
34985;DHT22;21190;58.750;17.004;2023-04-24T02:24:10;7.50;99.90
34985;DHT22;21190;58.750;17.004;2023-04-24T02:26:37;7.50;99.90
34985;DHT22;21190;58.750;17.004;2023-04-24T02:29:04;7.40;99.90
34985;DHT22;21190;58.750;17.004;2023-04-24T02:31:31;7.40;99.90
34985;DHT22;21190;58.750;17.004;2023-04-24T02:33:58;7.40;99.90
34985;DHT22;21190;58.750;17.004;2023-04-24T02:36:25;7.40;99.90
34985;DHT22;21190;58.750;17.004;2023-04-24T02:38:52;7.50;99.90
34985;DHT22;21190;58.750;17.004;2023-04-24T02:41:19;7.50;99.90
34985;DHT22;21190;58.750;17.004;2023-04-24T02:43:46;7.50;99.90
34985;DHT22;21190;58.750;17.004;2023-04-24T02:46:13;7.50;99.90
34985;DHT22;21190;58.750;17.004;2023-04-24T02:48:40;7.50;99.90
34985;DHT22;21190;58.750;17.004;2023-04-24T02:51:07;7.50;99.90
34985;DHT22;21190;58.750;17.004;2023-04-24T02:53:34;7.50;99.90
34985;DHT22;21190;58.750;17.004;2023-04-24T02:56:01;7.50;99.90
34985;DHT22;21190;58.750;17.004;2023-04-24T02:58:29;7.50;99.90
34985;DHT22;21190;58.750;17.004;2023-04-24T03:00:56;7.60;99.90
34985;DHT22;21190;58.750;17.004;2023-04-24T03:03:23;7.60;99.90
34985;DHT22;21190;58.750;17.004;2023-04-24T03:05:50;7.50;99.90
34985;DHT22;21190;58.750;17.004;2023-04-24T03:08:17;7.50;99.90
34985;DHT22;21190;58.750;17.004;2023-04-24T03:10:44;7.50;99.90
34985;DHT22;21190;58.750;17.004;2023-04-24T03:13:14;7.40;99.90
34985;DHT22;21190;58.750;17.004;2023-04-24T03:15:42;7.50;99.90
34985;DHT22;21190;58.750;17.004;2023-04-24T03:18:08;7.50;99.90
34985;DHT22;21190;58.750;17.004;2023-04-24T03:20:36;7.50;99.90
34985;DHT22;21190;58.750;17.004;2023-04-24T03:23:04;7.50;99.90
34985;DHT22;21190;58.750;17.004;2023-04-24T03:25:31;7.50;99.90
34985;DHT22;21190;58.750;17.004;2023-04-24T03:27:58;7.50;99.90
34985;DHT22;21190;58.750;17.004;2023-04-24T03:30:25;7.50;99.90
34985;DHT22;21190;58.750;17.004;2023-04-24T03:32:52;7.50;99.90
34985;DHT22;21190;58.750;17.004;2023-04-24T03:35:19;7.50;99.90
34985;DHT22;21190;58.750;17.004;2023-04-24T03:37:46;7.60;99.90
34985;DHT22;21190;58.750;17.004;2023-04-24T03:40:12;7.60;99.90
34985;DHT22;21190;58.750;17.004;2023-04-24T03:42:39;7.60;99.90
34985;DHT22;21190;58.750;17.004;2023-04-24T03:45:07;7.50;99.90
34985;DHT22;21190;58.750;17.004;2023-04-24T03:47:34;7.50;99.90
34985;DHT22;21190;58.750;17.004;2023-04-24T03:50:01;7.50;99.90
34985;DHT22;21190;58.750;17.004;2023-04-24T03:52:28;7.60;99.90
34985;DHT22;21190;58.750;17.004;2023-04-24T03:54:55;7.50;99.90
34985;DHT22;21190;58.750;17.004;2023-04-24T03:57:22;7.50;99.90
34985;DHT22;21190;58.750;17.004;2023-04-24T03:59:49;7.50;99.90
34985;DHT22;21190;58.750;17.004;2023-04-24T04:02:16;7.50;99.90
34985;DHT22;21190;58.750;17.004;2023-04-24T04:04:43;7.60;99.90
34985;DHT22;21190;58.750;17.004;2023-04-24T04:07:10;7.60;99.90
34985;DHT22;21190;58.750;17.004;2023-04-24T04:09:37;7.50;99.90
34985;DHT22;21190;58.750;17.004;2023-04-24T04:12:04;7.60;99.90
34985;DHT22;21190;58.750;17.004;2023-04-24T04:14:31;7.60;99.90
34985;DHT22;21190;58.750;17.004;2023-04-24T04:16:58;7.60;99.90
34985;DHT22;21190;58.750;17.004;2023-04-24T04:19:25;7.60;99.90
34985;DHT22;21190;58.750;17.004;2023-04-24T04:21:52;7.60;99.90
34985;DHT22;21190;58.750;17.004;2023-04-24T04:24:20;7.70;99.90
34985;DHT22;21190;58.750;17.004;2023-04-24T04:26:51;7.70;99.90
34985;DHT22;21190;58.750;17.004;2023-04-24T04:29:18;7.90;99.90
34985;DHT22;21190;58.750;17.004;2023-04-24T04:31:45;7.80;99.90
34985;DHT22;21190;58.750;17.004;2023-04-24T04:34:12;7.80;99.90
34985;DHT22;21190;58.750;17.004;2023-04-24T04:36:41;7.80;99.90
34985;DHT22;21190;58.750;17.004;2023-04-24T04:39:09;7.80;99.90
34985;DHT22;21190;58.750;17.004;2023-04-24T04:41:36;7.80;99.90
34985;DHT22;21190;58.750;17.004;2023-04-24T04:44:04;7.80;99.90
34985;DHT22;21190;58.750;17.004;2023-04-24T04:46:31;7.80;99.90
34985;DHT22;21190;58.750;17.004;2023-04-24T04:49:02;7.80;99.90
34985;DHT22;21190;58.750;17.004;2023-04-24T04:51:29;7.80;99.90
34985;DHT22;21190;58.750;17.004;2023-04-24T04:53:57;7.80;99.90
34985;DHT22;21190;58.750;17.004;2023-04-24T04:56:24;7.80;99.90
34985;DHT22;21190;58.750;17.004;2023-04-24T04:58:51;7.80;99.90
34985;DHT22;21190;58.750;17.004;2023-04-24T05:01:18;7.80;99.90
34985;DHT22;21190;58.750;17.004;2023-04-24T05:03:45;7.80;99.90
34985;DHT22;21190;58.750;17.004;2023-04-24T05:06:12;7.80;99.90
34985;DHT22;21190;58.750;17.004;2023-04-24T05:08:39;8.00;99.90
34985;DHT22;21190;58.750;17.004;2023-04-24T05:11:06;7.90;99.90
34985;DHT22;21190;58.750;17.004;2023-04-24T05:13:33;8.00;99.90
34985;DHT22;21190;58.750;17.004;2023-04-24T05:16:07;8.00;99.90
34985;DHT22;21190;58.750;17.004;2023-04-24T05:18:33;7.90;99.90
34985;DHT22;21190;58.750;17.004;2023-04-24T05:21:01;8.00;99.90
34985;DHT22;21190;58.750;17.004;2023-04-24T05:23:28;8.10;99.90
34985;DHT22;21190;58.750;17.004;2023-04-24T05:25:55;8.00;99.90
34985;DHT22;21190;58.750;17.004;2023-04-24T05:28:22;8.10;99.90
34985;DHT22;21190;58.750;17.004;2023-04-24T05:30:48;8.00;99.90
34985;DHT22;21190;58.750;17.004;2023-04-24T05:33:16;8.10;99.90
34985;DHT22;21190;58.750;17.004;2023-04-24T05:35:43;8.00;99.90
34985;DHT22;21190;58.750;17.004;2023-04-24T05:38:13;8.00;99.90
34985;DHT22;21190;58.750;17.004;2023-04-24T05:40:40;8.10;99.90
34985;DHT22;21190;58.750;17.004;2023-04-24T05:43:07;8.10;99.90
34985;DHT22;21190;58.750;17.004;2023-04-24T05:45:34;8.20;99.90
34985;DHT22;21190;58.750;17.004;2023-04-24T05:48:03;8.20;99.90
34985;DHT22;21190;58.750;17.004;2023-04-24T05:50:30;8.30;99.90
34985;DHT22;21190;58.750;17.004;2023-04-24T05:52:57;8.40;99.90
34985;DHT22;21190;58.750;17.004;2023-04-24T05:55:30;8.40;99.90
34985;DHT22;21190;58.750;17.004;2023-04-24T05:57:57;8.30;99.90
34985;DHT22;21190;58.750;17.004;2023-04-24T06:00:25;8.40;99.90
34985;DHT22;21190;58.750;17.004;2023-04-24T06:02:52;8.40;99.90
34985;DHT22;21190;58.750;17.004;2023-04-24T06:05:20;8.40;99.90
34985;DHT22;21190;58.750;17.004;2023-04-24T06:07:48;8.30;99.90
34985;DHT22;21190;58.750;17.004;2023-04-24T06:10:14;8.30;99.90
34985;DHT22;21190;58.750;17.004;2023-04-24T06:12:42;8.30;99.90
34985;DHT22;21190;58.750;17.004;2023-04-24T06:15:09;8.40;99.90
34985;DHT22;21190;58.750;17.004;2023-04-24T06:17:36;8.40;99.90
34985;DHT22;21190;58.750;17.004;2023-04-24T06:20:04;8.40;99.90
34985;DHT22;21190;58.750;17.004;2023-04-24T06:22:33;8.50;99.90
34985;DHT22;21190;58.750;17.004;2023-04-24T06:25:00;8.50;99.90
34985;DHT22;21190;58.750;17.004;2023-04-24T06:27:27;8.60;99.90
34985;DHT22;21190;58.750;17.004;2023-04-24T06:29:54;8.60;99.90
34985;DHT22;21190;58.750;17.004;2023-04-24T06:32:23;8.60;99.90
34985;DHT22;21190;58.750;17.004;2023-04-24T06:34:51;8.70;99.90
34985;DHT22;21190;58.750;17.004;2023-04-24T06:37:20;8.70;99.90
34985;DHT22;21190;58.750;17.004;2023-04-24T06:39:47;8.80;99.90
34985;DHT22;21190;58.750;17.004;2023-04-24T06:42:14;8.80;99.90
34985;DHT22;21190;58.750;17.004;2023-04-24T06:44:41;8.80;99.90
34985;DHT22;21190;58.750;17.004;2023-04-24T06:47:09;8.90;99.90
34985;DHT22;21190;58.750;17.004;2023-04-24T06:49:37;8.90;99.90
34985;DHT22;21190;58.750;17.004;2023-04-24T06:52:04;8.90;99.90
34985;DHT22;21190;58.750;17.004;2023-04-24T06:54:31;9.00;99.90
34985;DHT22;21190;58.750;17.004;2023-04-24T06:56:59;9.10;99.90
34985;DHT22;21190;58.750;17.004;2023-04-24T06:59:27;9.20;99.90
34985;DHT22;21190;58.750;17.004;2023-04-24T07:01:55;9.20;99.90
34985;DHT22;21190;58.750;17.004;2023-04-24T07:04:22;9.30;99.90
34985;DHT22;21190;58.750;17.004;2023-04-24T07:06:52;9.50;99.90
34985;DHT22;21190;58.750;17.004;2023-04-24T07:09:25;9.50;99.90
34985;DHT22;21190;58.750;17.004;2023-04-24T07:11:53;9.60;99.90
34985;DHT22;21190;58.750;17.004;2023-04-24T07:14:20;9.70;99.90
34985;DHT22;21190;58.750;17.004;2023-04-24T07:16:47;9.80;99.90
34985;DHT22;21190;58.750;17.004;2023-04-24T07:19:15;9.80;99.90
34985;DHT22;21190;58.750;17.004;2023-04-24T07:21:42;9.90;99.90
34985;DHT22;21190;58.750;17.004;2023-04-24T07:24:08;10.00;99.90
34985;DHT22;21190;58.750;17.004;2023-04-24T07:26:38;10.00;99.90
34985;DHT22;21190;58.750;17.004;2023-04-24T07:29:06;10.00;99.90
34985;DHT22;21190;58.750;17.004;2023-04-24T07:31:33;10.00;99.90
34985;DHT22;21190;58.750;17.004;2023-04-24T07:34:02;10.10;99.90
34985;DHT22;21190;58.750;17.004;2023-04-24T07:36:29;10.20;99.90
34985;DHT22;21190;58.750;17.004;2023-04-24T07:38:55;10.20;99.90
34985;DHT22;21190;58.750;17.004;2023-04-24T07:41:25;10.30;99.90
34985;DHT22;21190;58.750;17.004;2023-04-24T07:43:54;10.30;99.90
34985;DHT22;21190;58.750;17.004;2023-04-24T07:46:21;10.30;99.90
34985;DHT22;21190;58.750;17.004;2023-04-24T07:48:49;10.40;99.90
34985;DHT22;21190;58.750;17.004;2023-04-24T07:51:35;10.40;99.90
34985;DHT22;21190;58.750;17.004;2023-04-24T07:54:05;10.40;99.90
34985;DHT22;21190;58.750;17.004;2023-04-24T07:56:33;10.50;99.90
34985;DHT22;21190;58.750;17.004;2023-04-24T07:59:00;10.50;99.90
34985;DHT22;21190;58.750;17.004;2023-04-24T08:01:28;10.50;99.90
34985;DHT22;21190;58.750;17.004;2023-04-24T08:03:54;10.50;99.90
34985;DHT22;21190;58.750;17.004;2023-04-24T08:06:22;10.50;99.90
34985;DHT22;21190;58.750;17.004;2023-04-24T08:08:49;10.50;99.90
34985;DHT22;21190;58.750;17.004;2023-04-24T08:11:18;10.50;99.90
34985;DHT22;21190;58.750;17.004;2023-04-24T08:13:45;10.60;99.90
34985;DHT22;21190;58.750;17.004;2023-04-24T08:16:12;10.60;99.90
34985;DHT22;21190;58.750;17.004;2023-04-24T08:18:39;10.50;99.90
34985;DHT22;21190;58.750;17.004;2023-04-24T08:21:06;10.40;99.90
34985;DHT22;21190;58.750;17.004;2023-04-24T08:23:33;10.40;99.90
34985;DHT22;21190;58.750;17.004;2023-04-24T08:26:00;10.40;99.90
34985;DHT22;21190;58.750;17.004;2023-04-24T08:28:27;10.40;99.90
34985;DHT22;21190;58.750;17.004;2023-04-24T08:30:54;10.40;99.90
34985;DHT22;21190;58.750;17.004;2023-04-24T08:33:22;10.40;99.90
34985;DHT22;21190;58.750;17.004;2023-04-24T08:35:50;10.50;99.90
34985;DHT22;21190;58.750;17.004;2023-04-24T08:38:17;10.50;99.90
34985;DHT22;21190;58.750;17.004;2023-04-24T08:40:44;10.50;99.90
34985;DHT22;21190;58.750;17.004;2023-04-24T08:43:13;10.40;99.90
34985;DHT22;21190;58.750;17.004;2023-04-24T08:45:40;10.40;99.90
34985;DHT22;21190;58.750;17.004;2023-04-24T08:48:08;10.40;99.90
34985;DHT22;21190;58.750;17.004;2023-04-24T08:50:53;10.40;99.90
34985;DHT22;21190;58.750;17.004;2023-04-24T08:53:20;10.40;99.90
34985;DHT22;21190;58.750;17.004;2023-04-24T08:55:48;10.40;99.90
34985;DHT22;21190;58.750;17.004;2023-04-24T08:58:16;10.30;99.90
34985;DHT22;21190;58.750;17.004;2023-04-24T09:00:44;10.30;99.90
34985;DHT22;21190;58.750;17.004;2023-04-24T09:03:17;10.40;99.90
34985;DHT22;21190;58.750;17.004;2023-04-24T09:05:46;10.50;99.90
34985;DHT22;21190;58.750;17.004;2023-04-24T09:08:14;10.60;99.90
34985;DHT22;21190;58.750;17.004;2023-04-24T09:10:42;10.70;99.90
34985;DHT22;21190;58.750;17.004;2023-04-24T09:13:10;10.70;99.90
34985;DHT22;21190;58.750;17.004;2023-04-24T09:15:38;10.70;99.90
34985;DHT22;21190;58.750;17.004;2023-04-24T09:18:05;10.70;99.90
34985;DHT22;21190;58.750;17.004;2023-04-24T09:20:33;10.80;99.90
34985;DHT22;21190;58.750;17.004;2023-04-24T09:23:02;10.90;99.90
34985;DHT22;21190;58.750;17.004;2023-04-24T09:25:33;10.80;99.90
34985;DHT22;21190;58.750;17.004;2023-04-24T09:28:04;10.80;99.90
34985;DHT22;21190;58.750;17.004;2023-04-24T09:30:33;10.80;99.90
34985;DHT22;21190;58.750;17.004;2023-04-24T09:33:13;10.80;99.90
34985;DHT22;21190;58.750;17.004;2023-04-24T09:35:49;10.90;99.90
34985;DHT22;21190;58.750;17.004;2023-04-24T09:38:16;10.90;99.90
34985;DHT22;21190;58.750;17.004;2023-04-24T09:40:44;10.80;99.90
34985;DHT22;21190;58.750;17.004;2023-04-24T09:43:11;10.70;99.90
34985;DHT22;21190;58.750;17.004;2023-04-24T09:45:39;10.70;99.90
34985;DHT22;21190;58.750;17.004;2023-04-24T09:48:10;10.70;99.90
34985;DHT22;21190;58.750;17.004;2023-04-24T09:50:37;10.70;99.90
34985;DHT22;21190;58.750;17.004;2023-04-24T09:53:05;10.80;99.90
34985;DHT22;21190;58.750;17.004;2023-04-24T09:55:45;10.70;99.90
34985;DHT22;21190;58.750;17.004;2023-04-24T09:58:12;10.70;99.90
34985;DHT22;21190;58.750;17.004;2023-04-24T10:00:39;10.60;99.90
34985;DHT22;21190;58.750;17.004;2023-04-24T10:03:06;10.40;99.90
34985;DHT22;21190;58.750;17.004;2023-04-24T10:05:36;10.40;99.90
34985;DHT22;21190;58.750;17.004;2023-04-24T10:08:06;10.30;99.90
34985;DHT22;21190;58.750;17.004;2023-04-24T10:10:38;10.30;99.90
34985;DHT22;21190;58.750;17.004;2023-04-24T10:13:07;10.30;99.90
34985;DHT22;21190;58.750;17.004;2023-04-24T10:15:37;10.30;99.90
34985;DHT22;21190;58.750;17.004;2023-04-24T10:18:08;10.30;99.90
34985;DHT22;21190;58.750;17.004;2023-04-24T10:20:38;10.50;99.90
34985;DHT22;21190;58.750;17.004;2023-04-24T10:23:05;10.50;99.90
34985;DHT22;21190;58.750;17.004;2023-04-24T10:25:34;10.50;99.90
34985;DHT22;21190;58.750;17.004;2023-04-24T10:28:02;10.40;99.90
34985;DHT22;21190;58.750;17.004;2023-04-24T10:30:31;10.50;99.90
34985;DHT22;21190;58.750;17.004;2023-04-24T10:33:06;10.40;99.90
34985;DHT22;21190;58.750;17.004;2023-04-24T10:35:38;10.40;99.90
34985;DHT22;21190;58.750;17.004;2023-04-24T10:38:09;10.40;99.90
34985;DHT22;21190;58.750;17.004;2023-04-24T10:40:37;10.50;99.90
34985;DHT22;21190;58.750;17.004;2023-04-24T10:43:05;10.60;99.90
34985;DHT22;21190;58.750;17.004;2023-04-24T10:45:33;10.70;99.90
34985;DHT22;21190;58.750;17.004;2023-04-24T10:48:04;10.90;99.90
34985;DHT22;21190;58.750;17.004;2023-04-24T10:50:47;10.90;99.90
34985;DHT22;21190;58.750;17.004;2023-04-24T10:53:17;10.90;99.90
34985;DHT22;21190;58.750;17.004;2023-04-24T10:55:59;10.90;99.90
34985;DHT22;21190;58.750;17.004;2023-04-24T10:58:44;11.00;99.90
34985;DHT22;21190;58.750;17.004;2023-04-24T11:01:39;10.90;99.90
34985;DHT22;21190;58.750;17.004;2023-04-24T11:04:05;10.90;99.90
34985;DHT22;21190;58.750;17.004;2023-04-24T11:06:36;10.60;99.90
34985;DHT22;21190;58.750;17.004;2023-04-24T11:09:07;10.40;99.90
34985;DHT22;21190;58.750;17.004;2023-04-24T11:11:36;10.50;99.90
34985;DHT22;21190;58.750;17.004;2023-04-24T11:14:05;10.50;99.90
34985;DHT22;21190;58.750;17.004;2023-04-24T11:16:39;10.40;99.90
34985;DHT22;21190;58.750;17.004;2023-04-24T11:21:48;9.90;99.90
34985;DHT22;21190;58.750;17.004;2023-04-24T11:24:30;9.70;99.90
34985;DHT22;21190;58.750;17.004;2023-04-24T11:26:59;9.80;99.90
34985;DHT22;21190;58.750;17.004;2023-04-24T11:29:48;9.80;99.90
34985;DHT22;21190;58.750;17.004;2023-04-24T11:32:36;9.90;99.90
34985;DHT22;21190;58.750;17.004;2023-04-24T11:37:42;9.90;99.90
34985;DHT22;21190;58.750;17.004;2023-04-24T11:40:10;9.90;99.90
34985;DHT22;21190;58.750;17.004;2023-04-24T11:42:40;9.70;99.90
34985;DHT22;21190;58.750;17.004;2023-04-24T11:45:09;9.60;99.90
34985;DHT22;21190;58.750;17.004;2023-04-24T11:47:37;9.40;99.90
34985;DHT22;21190;58.750;17.004;2023-04-24T11:50:06;9.50;99.90
34985;DHT22;21190;58.750;17.004;2023-04-24T11:52:41;9.40;99.90
34985;DHT22;21190;58.750;17.004;2023-04-24T11:55:29;9.40;99.90
34985;DHT22;21190;58.750;17.004;2023-04-24T11:57:57;9.30;99.90
34985;DHT22;21190;58.750;17.004;2023-04-24T12:00:27;9.20;99.90
34985;DHT22;21190;58.750;17.004;2023-04-24T12:03:09;9.20;99.90
34985;DHT22;21190;58.750;17.004;2023-04-24T12:05:37;9.30;99.90
34985;DHT22;21190;58.750;17.004;2023-04-24T12:08:06;9.30;99.90
34985;DHT22;21190;58.750;17.004;2023-04-24T12:10:33;9.30;99.90
34985;DHT22;21190;58.750;17.004;2023-04-24T12:13:01;9.30;99.90
34985;DHT22;21190;58.750;17.004;2023-04-24T12:15:29;9.20;99.90
34985;DHT22;21190;58.750;17.004;2023-04-24T12:17:56;9.10;99.90
34985;DHT22;21190;58.750;17.004;2023-04-24T12:20:28;9.20;99.90
34985;DHT22;21190;58.750;17.004;2023-04-24T12:22:58;9.20;99.90
34985;DHT22;21190;58.750;17.004;2023-04-24T12:25:28;9.20;99.90
34985;DHT22;21190;58.750;17.004;2023-04-24T12:30:34;9.20;99.90
34985;DHT22;21190;58.750;17.004;2023-04-24T12:33:02;9.20;99.90
34985;DHT22;21190;58.750;17.004;2023-04-24T12:35:31;9.10;99.90
34985;DHT22;21190;58.750;17.004;2023-04-24T12:38:11;9.00;99.90
34985;DHT22;21190;58.750;17.004;2023-04-24T12:40:40;9.00;99.90
34985;DHT22;21190;58.750;17.004;2023-04-24T12:43:20;8.90;99.90
34985;DHT22;21190;58.750;17.004;2023-04-24T12:45:48;8.80;99.90
34985;DHT22;21190;58.750;17.004;2023-04-24T12:48:15;8.80;99.90
34985;DHT22;21190;58.750;17.004;2023-04-24T12:50:43;8.80;99.90
34985;DHT22;21190;58.750;17.004;2023-04-24T12:53:13;8.80;99.90
34985;DHT22;21190;58.750;17.004;2023-04-24T12:55:40;8.80;99.90
34985;DHT22;21190;58.750;17.004;2023-04-24T12:58:07;8.90;99.90
34985;DHT22;21190;58.750;17.004;2023-04-24T13:00:34;8.90;99.90
34985;DHT22;21190;58.750;17.004;2023-04-24T13:03:02;8.80;99.90
34985;DHT22;21190;58.750;17.004;2023-04-24T13:05:30;8.70;99.90
34985;DHT22;21190;58.750;17.004;2023-04-24T13:07:57;8.60;99.90
34985;DHT22;21190;58.750;17.004;2023-04-24T13:10:24;8.60;99.90
34985;DHT22;21190;58.750;17.004;2023-04-24T13:12:51;8.50;99.90
34985;DHT22;21190;58.750;17.004;2023-04-24T13:15:19;8.50;99.90
34985;DHT22;21190;58.750;17.004;2023-04-24T13:17:45;8.60;99.90
34985;DHT22;21190;58.750;17.004;2023-04-24T13:20:12;8.50;99.90
34985;DHT22;21190;58.750;17.004;2023-04-24T13:22:39;8.60;99.90
34985;DHT22;21190;58.750;17.004;2023-04-24T13:25:07;8.50;99.90
34985;DHT22;21190;58.750;17.004;2023-04-24T13:27:34;8.40;99.90
34985;DHT22;21190;58.750;17.004;2023-04-24T13:30:00;8.30;99.90
34985;DHT22;21190;58.750;17.004;2023-04-24T13:32:27;8.30;99.90
34985;DHT22;21190;58.750;17.004;2023-04-24T13:34:56;8.10;99.90
34985;DHT22;21190;58.750;17.004;2023-04-24T13:37:23;8.10;99.90
34985;DHT22;21190;58.750;17.004;2023-04-24T13:39:50;8.10;99.90
34985;DHT22;21190;58.750;17.004;2023-04-24T13:42:18;8.00;99.90
34985;DHT22;21190;58.750;17.004;2023-04-24T13:44:45;8.10;99.90
34985;DHT22;21190;58.750;17.004;2023-04-24T13:47:12;8.10;99.90
34985;DHT22;21190;58.750;17.004;2023-04-24T13:49:39;7.90;99.90
34985;DHT22;21190;58.750;17.004;2023-04-24T13:52:06;7.90;99.90
34985;DHT22;21190;58.750;17.004;2023-04-24T13:54:33;7.90;99.90
34985;DHT22;21190;58.750;17.004;2023-04-24T13:57:01;7.70;99.90
34985;DHT22;21190;58.750;17.004;2023-04-24T13:59:29;7.60;99.90
34985;DHT22;21190;58.750;17.004;2023-04-24T14:01:56;7.50;99.90
34985;DHT22;21190;58.750;17.004;2023-04-24T14:04:24;7.50;99.90
34985;DHT22;21190;58.750;17.004;2023-04-24T14:06:51;7.30;99.90
34985;DHT22;21190;58.750;17.004;2023-04-24T14:09:18;7.40;99.90
34985;DHT22;21190;58.750;17.004;2023-04-24T14:11:45;7.30;99.90
34985;DHT22;21190;58.750;17.004;2023-04-24T14:14:12;7.30;99.90
34985;DHT22;21190;58.750;17.004;2023-04-24T14:16:39;7.20;99.90
34985;DHT22;21190;58.750;17.004;2023-04-24T14:19:06;7.20;99.90
34985;DHT22;21190;58.750;17.004;2023-04-24T14:21:33;7.10;99.90
34985;DHT22;21190;58.750;17.004;2023-04-24T14:24:00;7.00;99.90
34985;DHT22;21190;58.750;17.004;2023-04-24T14:26:27;7.00;99.90
34985;DHT22;21190;58.750;17.004;2023-04-24T14:28:54;7.00;99.90
34985;DHT22;21190;58.750;17.004;2023-04-24T14:31:36;7.00;99.90
34985;DHT22;21190;58.750;17.004;2023-04-24T14:34:03;7.10;99.90
34985;DHT22;21190;58.750;17.004;2023-04-24T14:36:30;7.10;99.90
34985;DHT22;21190;58.750;17.004;2023-04-24T14:38:58;7.00;99.90
34985;DHT22;21190;58.750;17.004;2023-04-24T14:41:25;7.00;99.90
34985;DHT22;21190;58.750;17.004;2023-04-24T14:43:52;7.00;99.90
34985;DHT22;21190;58.750;17.004;2023-04-24T14:46:19;7.10;99.90
34985;DHT22;21190;58.750;17.004;2023-04-24T14:48:46;7.00;99.90
34985;DHT22;21190;58.750;17.004;2023-04-24T14:51:13;7.00;99.90
34985;DHT22;21190;58.750;17.004;2023-04-24T14:53:40;7.00;99.90
34985;DHT22;21190;58.750;17.004;2023-04-24T14:56:07;6.90;99.90
34985;DHT22;21190;58.750;17.004;2023-04-24T14:58:34;6.90;99.90
34985;DHT22;21190;58.750;17.004;2023-04-24T15:01:01;6.80;99.90
34985;DHT22;21190;58.750;17.004;2023-04-24T15:03:28;6.80;99.90
34985;DHT22;21190;58.750;17.004;2023-04-24T15:05:56;6.90;99.90
34985;DHT22;21190;58.750;17.004;2023-04-24T15:08:24;6.80;99.90
34985;DHT22;21190;58.750;17.004;2023-04-24T15:10:51;6.70;99.90
34985;DHT22;21190;58.750;17.004;2023-04-24T15:13:18;6.80;99.90
34985;DHT22;21190;58.750;17.004;2023-04-24T15:15:48;6.70;99.90
34985;DHT22;21190;58.750;17.004;2023-04-24T15:18:15;6.70;99.90
34985;DHT22;21190;58.750;17.004;2023-04-24T15:20:42;6.50;99.90
34985;DHT22;21190;58.750;17.004;2023-04-24T15:23:09;6.40;99.90
34985;DHT22;21190;58.750;17.004;2023-04-24T15:25:37;6.30;99.90
34985;DHT22;21190;58.750;17.004;2023-04-24T15:28:05;6.30;99.90
34985;DHT22;21190;58.750;17.004;2023-04-24T15:30:32;6.30;99.90
34985;DHT22;21190;58.750;17.004;2023-04-24T15:33:00;6.30;99.90
34985;DHT22;21190;58.750;17.004;2023-04-24T15:35:28;6.30;99.90
34985;DHT22;21190;58.750;17.004;2023-04-24T15:37:55;6.30;99.90
34985;DHT22;21190;58.750;17.004;2023-04-24T15:40:22;6.30;99.90
34985;DHT22;21190;58.750;17.004;2023-04-24T15:42:49;6.30;99.90